Time;durP1;ratioP1;P1;durP2;ratioP2;P2;SDS_P1;SDS_P2;PMS_P1;PMS_P2;Temp;Humidity;BMP_temperature;BMP_pressure;BME280_temperature;BME280_humidity;BME280_pressure;Samples;Min_cycle;Max_cycle;Signal;HPM_P1;HPM_P2
2021/04/17 00:02:11;;;;;;;7.03;6.38;;;6.00;75.10;;;;;;6227538;28;20412;-78
2021/04/17 00:05:13;;;;;;;6.38;5.80;;;6.00;75.10;;;;;;6245891;28;20049;-76
2021/04/17 00:08:16;;;;;;;10.98;7.93;;;6.00;75.40;;;;;;6252777;28;20133;-78
2021/04/17 00:11:17;;;;;;;7.85;7.05;;;6.00;75.40;;;;;;6252996;28;20084;-78
2021/04/17 00:14:21;;;;;;;7.03;6.43;;;5.90;75.50;;;;;;6250430;28;20586;-78
2021/04/17 00:17:22;;;;;;;9.35;6.35;;;6.00;75.70;;;;;;6251289;28;20140;-78
2021/04/17 00:20:24;;;;;;;8.45;7.55;;;5.90;75.80;;;;;;6252243;28;20069;-78
2021/04/17 00:23:26;;;;;;;9.82;7.70;;;5.90;76.00;;;;;;6251688;28;20521;-78
2021/04/17 00:26:27;;;;;;;8.63;7.68;;;5.90;76.20;;;;;;6279806;28;20049;-78
2021/04/17 00:29:29;;;;;;;6.70;5.88;;;5.80;76.40;;;;;;6275259;28;20041;-78
2021/04/17 00:32:30;;;;;;;8.20;7.45;;;5.70;76.70;;;;;;6275741;28;20068;-78
2021/04/17 00:35:31;;;;;;;7.75;6.97;;;5.60;77.00;;;;;;6276124;28;20155;-79
2021/04/17 00:38:33;;;;;;;9.70;8.27;;;5.50;77.30;;;;;;6277752;28;20137;-78
2021/04/17 00:41:35;;;;;;;7.93;7.28;;;5.50;77.80;;;;;;6277248;28;20619;-78
2021/04/17 00:44:36;;;;;;;8.20;7.40;;;5.40;78.40;;;;;;6276933;28;20099;-78
2021/04/17 00:47:38;;;;;;;8.10;7.40;;;5.30;78.90;;;;;;6277293;28;20072;-78
2021/04/17 00:50:39;;;;;;;7.93;6.97;;;5.10;79.40;;;;;;6279164;28;20053;-78
2021/04/17 00:53:41;;;;;;;10.48;7.70;;;5.00;80.00;;;;;;6278647;28;20048;-78
2021/04/17 00:56:43;;;;;;;7.13;6.45;;;5.00;80.30;;;;;;6275434;28;20129;-78
2021/04/17 00:59:44;;;;;;;6.70;6.10;;;4.90;80.60;;;;;;6272052;28;20065;-77
2021/04/17 01:02:51;;;;;;;6.32;5.72;;;4.70;80.90;;;;;;6272927;28;20466;-77
2021/04/17 01:05:58;;;;;;;5.82;5.18;;;4.60;81.50;;;;;;6272063;28;20061;-78
2021/04/17 01:09:06;;;;;;;5.30;4.85;;;4.50;82.00;;;;;;6271891;28;20143;-77
2021/04/17 01:12:11;;;;;;;5.80;5.20;;;4.40;82.50;;;;;;6272359;28;20132;-77
2021/04/17 01:15:14;;;;;;;9.98;6.40;;;4.30;83.00;;;;;;6271579;28;20045;-77
2021/04/17 01:18:17;;;;;;;7.78;6.97;;;4.20;83.30;;;;;;6271313;28;20049;-77
2021/04/17 01:21:18;;;;;;;8.80;7.22;;;4.10;83.70;;;;;;6272096;28;20056;-77
2021/04/17 01:24:25;;;;;;;7.28;6.55;;;4.00;84.00;;;;;;6271441;28;20119;-76
2021/04/17 01:27:27;;;;;;;7.95;6.72;;;3.90;84.40;;;;;;6270866;28;20526;-76
2021/04/17 01:30:29;;;;;;;6.38;5.88;;;3.80;84.80;;;;;;6273105;28;20182;-76
2021/04/17 01:33:33;;;;;;;9.50;6.07;;;3.80;85.20;;;;;;6270577;28;20049;-76
2021/04/17 01:36:37;;;;;;;6.53;5.43;;;3.70;85.40;;;;;;6271018;28;20057;-76
2021/04/17 01:39:40;;;;;;;7.22;6.25;;;3.70;85.60;;;;;;6271077;28;20045;-76
2021/04/17 01:42:45;;;;;;;7.07;6.20;;;3.60;86.00;;;;;;6271219;28;20422;-76
2021/04/17 01:45:47;;;;;;;7.87;7.17;;;3.50;86.10;;;;;;6270473;28;20120;-76
2021/04/17 01:48:51;;;;;;;8.93;7.30;;;3.40;86.50;;;;;;6271408;28;20136;-76
2021/04/17 01:51:54;;;;;;;7.73;7.03;;;3.30;87.00;;;;;;6271311;28;20041;-76
2021/04/17 01:54:58;;;;;;;9.30;7.53;;;3.30;87.60;;;;;;6271052;28;20091;-76
2021/04/17 01:58:02;;;;;;;8.10;7.40;;;3.20;87.80;;;;;;6270962;28;20513;-75
2021/04/17 02:01:03;;;;;;;7.70;6.97;;;3.10;88.40;;;;;;6270859;28;20558;-78
2021/04/17 02:04:05;;;;;;;7.43;6.73;;;3.10;89.00;;;;;;6273638;28;20070;-76
2021/04/17 02:07:06;;;;;;;7.53;6.57;;;3.00;88.80;;;;;;6276386;28;20761;-77
2021/04/17 02:10:09;;;;;;;9.57;6.40;;;2.90;89.40;;;;;;6275894;28;20510;-76
2021/04/17 02:13:12;;;;;;;9.17;7.43;;;2.90;89.90;;;;;;6275121;28;20182;-76
2021/04/17 02:16:18;;;;;;;7.60;6.90;;;2.80;89.90;;;;;;6275400;28;20527;-75
2021/04/17 02:19:27;;;;;;;9.57;8.77;;;2.90;90.10;;;;;;6275978;28;20049;-74
2021/04/17 02:22:30;;;;;;;8.63;6.97;;;2.90;90.10;;;;;;6275773;28;20457;-76
2021/04/17 02:25:32;;;;;;;8.80;6.67;;;3.00;90.10;;;;;;6274969;28;20127;-76
2021/04/17 02:28:35;;;;;;;7.37;6.67;;;3.10;90.00;;;;;;6275338;28;20149;-77
2021/04/17 02:31:36;;;;;;;10.93;6.93;;;3.10;90.00;;;;;;6275664;28;20135;-77
2021/04/17 02:34:38;;;;;;;8.63;7.23;;;3.00;90.00;;;;;;6274499;28;20132;-77
2021/04/17 02:37:39;;;;;;;7.97;7.10;;;3.00;90.10;;;;;;6275373;28;20044;-77
2021/04/17 02:40:40;;;;;;;8.20;6.97;;;2.90;90.20;;;;;;6275804;28;20098;-77
2021/04/17 02:43:43;;;;;;;8.23;6.53;;;2.90;90.30;;;;;;6274394;28;20128;-77
2021/04/17 02:46:44;;;;;;;9.13;6.17;;;2.90;90.40;;;;;;6275595;28;20060;-77
2021/04/17 02:49:46;;;;;;;9.30;7.30;;;2.90;90.50;;;;;;6275095;28;20502;-77
2021/04/17 02:52:47;;;;;;;8.10;7.40;;;2.90;90.50;;;;;;6275039;28;20068;-78
2021/04/17 02:55:48;;;;;;;7.67;6.97;;;2.90;90.60;;;;;;6274442;28;20087;-76
2021/04/17 02:58:51;;;;;;;8.13;7.00;;;2.80;90.70;;;;;;6275162;28;20530;-77
2021/04/17 03:01:53;;;;;;;9.27;6.97;;;2.80;90.70;;;;;;6274895;28;20051;-76
2021/04/17 03:04:54;;;;;;;8.57;7.27;;;2.70;90.90;;;;;;6274107;28;20614;-77
2021/04/17 03:07:55;;;;;;;7.53;6.83;;;2.70;91.00;;;;;;6274834;28;20128;-77
2021/04/17 03:10:57;;;;;;;9.10;8.20;;;2.70;91.20;;;;;;6276476;28;20087;-76
2021/04/17 03:13:59;;;;;;;10.20;7.07;;;2.70;91.30;;;;;;6276077;28;20132;-77
2021/04/17 03:17:01;;;;;;;11.00;7.83;;;2.70;91.40;;;;;;6278157;28;20510;-76
2021/04/17 03:20:03;;;;;;;8.80;7.80;;;2.60;91.50;;;;;;6277373;28;20040;-76
2021/04/17 03:23:05;;;;;;;9.90;8.47;;;2.50;91.60;;;;;;6279906;28;20049;-75
2021/04/17 03:26:06;;;;;;;8.70;7.90;;;2.50;91.80;;;;;;6274278;28;20068;-75
2021/04/17 03:29:09;;;;;;;9.87;7.93;;;2.40;92.00;;;;;;6273523;28;20124;-77
2021/04/17 03:32:10;;;;;;;9.80;8.43;;;2.40;92.20;;;;;;6273735;28;20037;-77
2021/04/17 03:35:14;;;;;;;10.43;8.73;;;2.30;92.20;;;;;;6273381;28;20128;-77
2021/04/17 03:38:15;;;;;;;8.33;7.30;;;2.30;92.30;;;;;;6273384;28;20128;-77
2021/04/17 03:41:16;;;;;;;9.20;7.53;;;2.30;92.50;;;;;;6273405;28;20132;-77
2021/04/17 03:44:18;;;;;;;14.70;10.13;;;2.30;92.50;;;;;;6272797;28;20175;-77
2021/04/17 03:47:20;;;;;;;9.23;8.30;;;2.20;92.50;;;;;;6273877;28;20178;-77
2021/04/17 03:50:21;;;;;;;10.67;8.70;;;2.20;92.70;;;;;;6273442;28;20049;-76
2021/04/17 03:53:23;;;;;;;9.23;7.73;;;2.20;92.90;;;;;;6272957;28;20067;-76
2021/04/17 03:56:24;;;;;;;11.53;9.00;;;2.20;92.80;;;;;;6273187;28;20072;-76
2021/04/17 03:59:27;;;;;;;11.03;8.40;;;2.20;92.80;;;;;;6273004;28;20144;-76
2021/04/17 04:02:28;;;;;;;11.20;8.53;;;2.10;92.90;;;;;;6273644;28;20064;-77
2021/04/17 04:05:29;;;;;;;12.50;9.20;;;2.00;93.10;;;;;;6272457;28;20109;-77
2021/04/17 04:08:31;;;;;;;11.37;7.47;;;2.00;93.20;;;;;;6266692;28;20064;-76
2021/04/17 04:11:32;;;;;;;11.07;8.90;;;2.00;93.30;;;;;;6248387;28;20087;-76
2021/04/17 04:14:35;;;;;;;13.17;10.40;;;2.00;93.50;;;;;;6248012;28;20049;-77
2021/04/17 04:17:36;;;;;;;10.10;9.10;;;2.00;93.40;;;;;;6247743;28;20053;-77
2021/04/17 04:20:38;;;;;;;11.53;9.63;;;1.90;93.50;;;;;;6247875;28;20083;-76
2021/04/17 04:23:39;;;;;;;15.37;10.40;;;1.90;93.70;;;;;;6247404;28;20091;-76
2021/04/17 04:26:41;;;;;;;12.00;9.23;;;1.80;93.70;;;;;;6247459;28;20133;-76
2021/04/17 04:29:43;;;;;;;11.43;10.27;;;1.80;93.90;;;;;;6247738;28;20046;-75
2021/04/17 04:32:44;;;;;;;10.80;9.80;;;1.80;94.00;;;;;;6248242;28;20066;-75
2021/04/17 04:35:45;;;;;;;11.57;10.37;;;1.80;94.00;;;;;;6246849;28;20506;-75
2021/04/17 04:38:47;;;;;;;10.87;9.73;;;1.70;94.00;;;;;;6248356;28;20140;-75
2021/04/17 04:41:48;;;;;;;13.97;11.13;;;1.60;94.10;;;;;;6247360;28;20053;-75
2021/04/17 04:44:50;;;;;;;11.57;9.90;;;1.60;94.30;;;;;;6247118;28;20153;-75
2021/04/17 04:47:51;;;;;;;16.27;10.60;;;1.60;94.30;;;;;;6247361;28;20128;-75
2021/04/17 04:50:53;;;;;;;10.73;9.60;;;1.60;94.40;;;;;;6247621;28;20054;-75
2021/04/17 04:53:54;;;;;;;15.90;12.70;;;1.60;94.40;;;;;;6246810;28;20198;-75
2021/04/17 04:56:56;;;;;;;12.93;10.67;;;1.50;94.50;;;;;;6247251;28;20128;-75
2021/04/17 04:59:58;;;;;;;19.00;12.70;;;1.60;94.60;;;;;;6247268;28;20073;-75
2021/04/17 05:02:59;;;;;;;12.77;11.00;;;1.50;94.60;;;;;;6247522;28;20063;-75
2021/04/17 05:06:01;;;;;;;13.60;11.93;;;1.60;94.70;;;;;;6246289;28;20518;-75
2021/04/17 05:09:02;;;;;;;12.40;11.10;;;1.60;95.00;;;;;;6246834;28;20121;-76
2021/04/17 05:12:04;;;;;;;15.50;11.83;;;1.70;94.70;;;;;;6246906;28;20069;-75
2021/04/17 05:15:08;;;;;;;15.13;11.20;;;1.70;94.50;;;;;;6246528;28;20491;-75
2021/04/17 05:18:10;;;;;;;13.30;10.73;;;;;;;;;;6246603;28;20088;-75
2021/04/17 05:21:11;;;;;;;14.70;10.83;;;2.00;94.20;;;;;;6246712;28;20095;-75
2021/04/17 05:24:12;;;;;;;11.97;10.77;;;2.00;94.10;;;;;;6247325;28;20065;-76
2021/04/17 05:27:14;;;;;;;12.57;10.80;;;2.10;94.00;;;;;;6248176;28;20046;-75
2021/04/17 05:30:17;;;;;;;15.03;12.10;;;2.30;93.90;;;;;;6246823;28;20470;-75
2021/04/17 05:33:19;;;;;;;15.40;12.50;;;2.40;93.80;;;;;;6247338;28;20124;-75
2021/04/17 05:36:20;;;;;;;19.23;13.20;;;2.60;93.50;;;;;;6246870;28;20125;-76
2021/04/17 05:39:21;;;;;;;14.43;11.50;;;2.80;93.20;;;;;;6251417;28;20139;-75
2021/04/17 05:42:23;;;;;;;16.57;12.80;;;2.90;93.00;;;;;;6253460;28;20057;-76
2021/04/17 05:45:25;;;;;;;15.00;10.33;;;3.10;92.80;;;;;;6257510;28;20049;-76
2021/04/17 05:48:26;;;;;;;15.83;11.17;;;3.30;92.40;;;;;;6283671;28;20033;-75
2021/04/17 05:51:27;;;;;;;12.60;11.07;;;3.50;92.10;;;;;;6284052;28;20026;-76
2021/04/17 05:54:29;;;;;;;12.00;10.23;;;3.60;91.80;;;;;;6283183;28;20029;-75
2021/04/17 05:57:30;;;;;;;16.57;13.37;;;3.70;91.60;;;;;;6283307;28;20037;-75
2021/04/17 06:00:32;;;;;;;14.80;11.33;;;3.80;91.70;;;;;;6282636;28;20036;-76
2021/04/17 06:03:35;;;;;;;15.23;12.63;;;4.00;91.20;;;;;;6279975;28;20049;-76
2021/04/17 06:06:36;;;;;;;13.90;11.23;;;4.10;91.10;;;;;;6277722;28;20045;-75
2021/04/17 06:09:37;;;;;;;15.00;10.63;;;4.30;91.00;;;;;;6281311;28;20043;-76
2021/04/17 06:12:39;;;;;;;14.20;11.07;;;4.40;90.80;;;;;;6266361;28;20077;-76
2021/04/17 06:15:41;;;;;;;11.35;9.50;;;4.50;90.60;;;;;;6252020;28;20136;-76
2021/04/17 06:18:43;;;;;;;13.32;12.02;;;4.70;90.40;;;;;;6251807;28;20076;-76
2021/04/17 06:21:44;;;;;;;14.75;11.98;;;4.90;90.20;;;;;;6251421;28;20137;-77
2021/04/17 06:24:45;;;;;;;19.33;11.77;;;5.10;90.10;;;;;;6250253;28;20191;-76
2021/04/17 06:27:47;;;;;;;12.13;10.73;;;5.30;89.80;;;;;;6265781;28;20061;-77
2021/04/17 06:30:49;;;;;;;14.32;12.63;;;5.40;89.20;;;;;;6275628;28;20179;-76
2021/04/17 06:33:51;;;;;;;13.05;11.75;;;5.60;88.70;;;;;;6274977;28;20624;-76
2021/04/17 06:36:52;;;;;;;17.13;12.43;;;5.80;88.30;;;;;;6275355;28;20049;-76
2021/04/17 06:39:53;;;;;;;13.82;12.43;;;6.00;87.60;;;;;;6276002;28;20047;-77
2021/04/17 06:42:58;;;;;;;13.50;12.10;;;6.10;87.10;;;;;;6276742;28;20595;-76
2021/04/17 06:46:01;;;;;;;14.07;12.27;;;6.20;86.20;;;;;;6275435;28;20061;-76
2021/04/17 06:49:07;;;;;;;16.30;11.98;;;6.40;85.60;;;;;;6275220;28;20048;-76
2021/04/17 06:52:10;;;;;;;14.38;12.80;;;6.60;84.80;;;;;;6275343;28;20056;-76
2021/04/17 06:55:12;;;;;;;15.27;12.10;;;6.80;83.50;;;;;;6274584;28;20103;-77
2021/04/17 06:58:14;;;;;;;12.20;11.10;;;7.00;81.90;;;;;;6274249;28;20049;-77
2021/04/17 07:01:16;;;;;;;12.80;11.55;;;7.30;80.90;;;;;;6274262;28;20053;-76
2021/04/17 07:04:18;;;;;;;13.65;12.25;;;7.60;79.70;;;;;;6273712;28;20065;-76
2021/04/17 07:07:19;;;;;;;14.30;11.05;;;7.90;78.80;;;;;;6274822;28;20052;-77
2021/04/17 07:10:20;;;;;;;12.27;10.55;;;8.20;77.40;;;;;;6274465;28;20147;-76
2021/04/17 07:13:22;;;;;;;14.55;10.52;;;8.40;76.50;;;;;;6274092;28;20498;-77
2021/04/17 07:16:24;;;;;;;11.10;10.07;;;8.50;75.70;;;;;;6273539;28;20484;-77
2021/04/17 07:19:43;;;;;;;12.40;10.40;;;8.80;74.70;;;;;;6274129;28;20094;-78
2021/04/17 07:22:45;;;;;;;11.38;10.38;;;9.10;73.30;;;;;;6278423;28;20059;-76
2021/04/17 07:25:46;;;;;;;12.18;10.73;;;9.40;71.90;;;;;;6276841;28;20072;-77
2021/04/17 07:29:03;;;;;;;10.38;9.20;;;9.60;70.60;;;;;;6273934;28;20041;-77
2021/04/17 07:32:17;;;;;;;13.32;10.85;;;9.80;69.90;;;;;;6274377;28;20049;-76
2021/04/17 07:35:20;;;;;;;14.13;9.27;;;10.00;68.70;;;;;;6274322;28;20057;-77
2021/04/17 07:38:24;;;;;;;8.55;6.28;;;10.40;67.50;;;;;;6274138;28;20544;-76
2021/04/17 07:41:25;;;;;;;6.43;5.43;;;10.80;63.70;;;;;;6273842;28;20080;-76
2021/04/17 07:44:35;;;;;;;10.25;6.22;;;11.00;61.20;;;;;;6273570;28;20099;-76
2021/04/17 07:47:37;;;;;;;7.05;5.97;;;11.20;59.60;;;;;;6273488;28;20627;-76
2021/04/17 07:50:39;;;;;;;6.18;5.60;;;11.30;59.70;;;;;;6273783;28;20053;-77
2021/04/17 07:53:42;;;;;;;10.15;6.80;;;11.70;58.70;;;;;;6272838;28;20114;-77
2021/04/17 07:56:43;;;;;;;7.20;6.50;;;12.00;56.60;;;;;;6273274;28;20049;-77
2021/04/17 07:59:46;;;;;;;7.60;6.90;;;12.40;56.70;;;;;;6272420;28;20593;-75
2021/04/17 08:02:51;;;;;;;5.75;5.20;;;12.70;56.20;;;;;;6273148;28;20140;-77
2021/04/17 08:05:52;;;;;;;5.93;5.20;;;13.10;54.90;;;;;;6272360;28;20047;-76
2021/04/17 08:08:55;;;;;;;10.07;5.97;;;13.40;53.00;;;;;;6273564;28;20128;-77
2021/04/17 08:11:58;;;;;;;5.85;5.10;;;13.70;52.30;;;;;;6273172;28;20068;-75
2021/04/17 08:15:00;;;;;;;5.80;5.22;;;13.90;50.80;;;;;;6250199;28;20065;-75
2021/04/17 08:18:03;;;;;;;6.72;5.97;;;14.00;50.20;;;;;;6247969;28;20046;-77
2021/04/17 08:21:05;;;;;;;10.73;6.05;;;14.00;49.90;;;;;;6247694;28;20052;-77
2021/04/17 08:24:08;;;;;;;6.25;5.65;;;;;;;;;;6247065;28;20084;-76
2021/04/17 08:27:10;;;;;;;9.93;7.03;;;13.70;50.00;;;;;;6247950;28;20128;-77
2021/04/17 08:30:20;;;;;;;7.60;6.90;;;13.60;53.10;;;;;;6248392;28;20047;-78
2021/04/17 08:33:22;;;;;;;7.88;5.75;;;13.70;51.70;;;;;;6249919;28;20614;-78
2021/04/17 08:36:31;;;;;;;7.30;5.05;;;13.90;51.00;;;;;;6251405;28;20069;-77
2021/04/17 08:39:44;;;;;;;7.35;5.78;;;14.20;50.20;;;;;;6251339;28;20106;-78
2021/04/17 08:42:49;;;;;;;8.75;5.55;;;14.80;49.20;;;;;;6251066;28;20136;-77
2021/04/17 08:46:03;;;;;;;6.57;4.97;;;15.40;49.60;;;;;;6248499;28;20547;-78
2021/04/17 08:49:20;;;;;;;9.52;4.55;;;15.90;47.20;;;;;;6250898;28;20041;-78
2021/04/17 08:52:23;;;;;;;7.43;4.63;;;15.30;46.90;;;;;;6249276;28;20422;-78
2021/04/17 08:55:25;;;;;;;7.55;6.85;;;14.50;45.20;;;;;;6247965;28;20487;-78
2021/04/17 08:58:27;;;;;;;6.85;4.50;;;13.80;45.90;;;;;;6249055;28;20191;-78
2021/04/17 09:01:28;;;;;;;5.22;4.03;;;13.50;48.20;;;;;;6248216;28;20132;-77
2021/04/17 09:04:31;;;;;;;5.50;4.00;;;13.70;48.20;;;;;;6246492;28;20080;-77
2021/04/17 09:07:34;;;;;;;6.82;3.63;;;13.80;48.40;;;;;;6246484;28;20510;-77
2021/04/17 09:10:37;;;;;;;6.82;3.95;;;14.50;47.80;;;;;;6247200;28;20064;-77
2021/04/17 09:13:38;;;;;;;6.75;5.20;;;15.00;45.80;;;;;;6247060;28;20081;-77
2021/04/17 09:16:40;;;;;;;5.10;4.10;;;15.30;44.30;;;;;;6246032;28;20049;-77
2021/04/17 09:19:54;;;;;;;8.00;3.83;;;15.10;45.00;;;;;;6246960;28;20048;-77
2021/04/17 09:22:55;;;;;;;5.65;4.15;;;14.80;43.40;;;;;;6246643;28;20155;-77
2021/04/17 09:25:57;;;;;;;4.88;4.38;;;14.30;45.00;;;;;;6245922;28;20049;-77
2021/04/17 09:28:59;;;;;;;5.60;4.50;;;14.00;44.50;;;;;;6246286;28;20053;-77
2021/04/17 09:32:04;;;;;;;5.10;4.25;;;13.80;45.20;;;;;;6246759;28;20124;-77
2021/04/17 09:35:15;;;;;;;8.68;5.63;;;13.90;46.10;;;;;;6246471;28;20057;-77
2021/04/17 09:38:17;;;;;;;6.43;4.50;;;14.10;45.10;;;;;;6246177;28;20077;-77
2021/04/17 09:41:19;;;;;;;3.90;3.22;;;14.20;44.70;;;;;;6246330;28;20475;-78
2021/04/17 09:44:21;;;;;;;6.63;5.65;;;14.60;45.60;;;;;;6247863;28;20558;-78
2021/04/17 09:47:22;;;;;;;7.70;4.75;;;14.90;43.90;;;;;;6248150;28;20136;-78
2021/04/17 09:50:27;;;;;;;4.45;4.05;;;15.20;42.90;;;;;;6247833;28;20187;-78
2021/04/17 09:53:29;;;;;;;4.38;3.97;;;14.70;42.70;;;;;;6246860;28;20112;-77
2021/04/17 09:56:32;;;;;;;5.40;3.40;;;14.10;44.50;;;;;;6246418;28;20049;-78
2021/04/17 09:59:35;;;;;;;6.22;4.13;;;13.90;45.20;;;;;;6246985;28;20746;-77
2021/04/17 10:02:40;;;;;;;6.82;4.30;;;13.80;45.10;;;;;;6248102;28;20128;-78
2021/04/17 10:05:43;;;;;;;6.10;3.47;;;14.00;44.40;;;;;;6246470;28;20095;-78
2021/04/17 10:08:44;;;;;;;7.18;5.00;;;14.40;43.60;;;;;;6246910;28;20511;-77
2021/04/17 10:11:45;;;;;;;5.68;4.13;;;14.50;41.40;;;;;;6246707;28;20069;-77
2021/04/17 10:14:48;;;;;;;5.97;4.45;;;14.10;42.80;;;;;;6247564;28;20049;-77
2021/04/17 10:17:51;;;;;;;7.00;3.45;;;14.50;41.70;;;;;;6246632;28;20514;-78
2021/04/17 10:20:53;;;;;;;4.32;3.53;;;15.10;42.30;;;;;;6247504;28;20050;-78
2021/04/17 10:24:23;;;;;;;5.38;3.70;;;15.70;41.90;;;;;;6248127;28;20130;-77
2021/04/17 10:27:25;;;;;;;5.88;3.78;;;16.30;39.70;;;;;;6251923;28;20050;-78
2021/04/17 10:30:31;;;;;;;4.97;4.07;;;16.20;38.90;;;;;;6251606;28;20088;-78
2021/04/17 10:33:33;;;;;;;5.90;3.78;;;15.70;39.70;;;;;;6252201;28;20061;-78
2021/04/17 10:36:35;;;;;;;5.72;4.82;;;15.60;40.70;;;;;;6251625;28;20070;-78
2021/04/17 10:39:37;;;;;;;5.88;3.35;;;15.40;40.50;;;;;;6252329;28;20158;-78
2021/04/17 10:42:51;;;;;;;7.13;6.43;;;14.90;41.50;;;;;;6252588;28;20148;-77
2021/04/17 10:45:57;;;;;;;6.15;3.20;;;15.00;42.10;;;;;;6250786;28;20053;-78
2021/04/17 10:48:58;;;;;;;5.00;4.57;;;14.90;43.00;;;;;;6251718;28;20076;-77
2021/04/17 10:52:03;;;;;;;15.45;7.45;;;15.00;42.50;;;;;;6252021;28;20065;-78
2021/04/17 10:55:05;;;;;;;16.65;11.15;;;14.80;43.20;;;;;;6252144;28;20151;-78
2021/04/17 10:58:18;;;;;;;7.15;5.53;;;14.70;43.40;;;;;;6251376;28;20067;-78
2021/04/17 11:01:24;;;;;;;5.57;5.07;;;14.70;43.10;;;;;;6253587;28;20084;-78
2021/04/17 11:04:26;;;;;;;8.73;5.05;;;15.10;42.60;;;;;;6255070;28;20115;-78
2021/04/17 11:07:33;;;;;;;7.07;5.25;;;15.30;43.70;;;;;;6255658;28;20053;-78
2021/04/17 11:10:36;;;;;;;7.73;4.93;;;15.70;42.10;;;;;;6252436;28;20053;-78
2021/04/17 11:13:41;;;;;;;5.57;5.05;;;16.20;40.70;;;;;;6252300;28;20148;-78
2021/04/17 11:16:45;;;;;;;5.25;4.47;;;16.60;39.80;;;;;;6253005;28;20052;-78
2021/04/17 11:19:47;;;;;;;5.25;4.85;;;16.80;39.20;;;;;;6253224;28;20046;-78
2021/04/17 11:22:49;;;;;;;6.30;5.00;;;16.60;39.60;;;;;;6252661;28;20530;-77
2021/04/17 11:25:50;;;;;;;6.30;4.20;;;16.50;39.70;;;;;;6250638;28;20080;-78
2021/04/17 11:28:53;;;;;;;6.65;3.80;;;16.40;39.10;;;;;;6250994;28;20125;-77
2021/04/17 11:31:54;;;;;;;5.50;4.05;;;16.30;39.30;;;;;;6249381;28;20124;-77
2021/04/17 11:34:56;;;;;;;6.07;4.25;;;16.30;38.30;;;;;;6249043;28;20544;-77
2021/04/17 11:37:58;;;;;;;7.13;3.92;;;16.00;39.00;;;;;;6249046;28;20065;-78
2021/04/17 11:40:59;;;;;;;6.68;4.22;;;15.80;38.90;;;;;;6246963;28;20474;-78
2021/04/17 11:44:01;;;;;;;6.30;4.82;;;15.90;39.20;;;;;;6249333;28;20120;-77
2021/04/17 11:47:02;;;;;;;4.38;3.88;;;16.40;38.20;;;;;;6255145;28;20132;-78
2021/04/17 11:50:04;;;;;;;6.13;4.40;;;16.80;37.30;;;;;;6251053;28;20136;-80
2021/04/17 11:53:06;;;;;;;5.60;4.20;;;16.80;36.70;;;;;;6253544;28;20060;-78
2021/04/17 11:56:08;;;;;;;4.90;4.40;;;16.50;36.60;;;;;;6251402;28;20506;-78
2021/04/17 11:59:09;;;;;;;11.52;4.30;;;16.30;36.80;;;;;;6251785;28;20133;-78
2021/04/17 12:02:10;;;;;;;6.80;3.63;;;16.30;37.50;;;;;;6248970;28;20087;-78
2021/04/17 12:05:12;;;;;;;11.75;3.80;;;16.30;37.10;;;;;;6248539;28;20080;-77
2021/04/17 12:08:14;;;;;;;4.43;3.55;;;16.60;36.70;;;;;;6248383;28;20120;-78
2021/04/17 12:11:16;;;;;;;5.60;4.00;;;16.70;36.80;;;;;;6248976;28;20088;-77
2021/04/17 12:14:17;;;;;;;6.68;3.65;;;17.00;36.20;;;;;;6251511;28;20136;-78
2021/04/17 12:17:18;;;;;;;4.28;3.70;;;17.10;36.00;;;;;;6252254;28;20052;-78
2021/04/17 12:20:20;;;;;;;3.85;3.45;;;17.00;35.80;;;;;;6254399;28;20785;-78
2021/04/17 12:23:22;;;;;;;7.10;3.30;;;16.90;36.00;;;;;;6256643;28;20053;-78
2021/04/17 12:26:23;;;;;;;6.32;4.05;;;16.90;35.90;;;;;;6267077;28;20068;-78
2021/04/17 12:29:24;;;;;;;3.83;3.50;;;16.70;36.40;;;;;;6258429;28;20069;-79
2021/04/17 12:32:27;;;;;;;10.05;4.15;;;16.70;36.30;;;;;;6253145;28;20077;-77
2021/04/17 12:35:28;;;;;;;5.78;3.38;;;16.70;36.90;;;;;;6252228;28;20057;-78
2021/04/17 12:38:31;;;;;;;4.72;3.65;;;16.70;36.20;;;;;;6251971;28;20114;-79
2021/04/17 12:41:33;;;;;;;4.38;3.63;;;16.50;35.60;;;;;;6252931;28;20507;-77
2021/04/17 12:44:34;;;;;;;3.65;3.22;;;16.40;35.80;;;;;;6252604;28;20045;-78
2021/04/17 12:47:36;;;;;;;5.45;3.65;;;16.30;35.60;;;;;;6253367;28;20073;-77
2021/04/17 12:50:37;;;;;;;4.40;4.00;;;16.20;35.70;;;;;;6251255;28;20073;-77
2021/04/17 12:53:39;;;;;;;4.18;3.78;;;15.90;36.40;;;;;;6250536;28;20133;-78
2021/04/17 12:56:41;;;;;;;6.60;3.53;;;15.80;36.10;;;;;;6250518;28;20045;-78
2021/04/17 12:59:42;;;;;;;7.32;3.17;;;15.70;35.80;;;;;;6250995;28;20474;-76
2021/04/17 13:02:43;;;;;;;5.72;3.63;;;15.60;36.10;;;;;;6251439;28;20133;-78
2021/04/17 13:05:45;;;;;;;5.85;3.88;;;15.50;36.00;;;;;;6250438;28;20069;-78
2021/04/17 13:08:48;;;;;;;5.55;4.13;;;15.40;36.40;;;;;;6255413;28;20080;-78
2021/04/17 13:11:49;;;;;;;3.95;3.55;;;15.60;35.70;;;;;;6253784;28;20042;-78
2021/04/17 13:14:50;;;;;;;4.25;2.97;;;15.90;35.80;;;;;;6250989;28;20077;-79
2021/04/17 13:17:52;;;;;;;3.78;3.20;;;15.90;35.10;;;;;;6256665;28;20044;-78
2021/04/17 13:20:54;;;;;;;3.08;2.78;;;15.80;34.50;;;;;;6252301;28;20045;-78
2021/04/17 13:23:56;;;;;;;3.70;3.10;;;15.50;35.40;;;;;;6249197;28;20120;-77
2021/04/17 13:26:58;;;;;;;7.00;4.18;;;15.50;35.70;;;;;;6249601;28;20112;-79
2021/04/17 13:29:59;;;;;;;3.70;3.03;;;15.40;35.20;;;;;;6250845;28;20465;-76
2021/04/17 13:33:00;;;;;;;5.32;3.15;;;15.40;35.30;;;;;;6248241;28;20514;-78
2021/04/17 13:36:02;;;;;;;3.58;2.97;;;15.50;35.70;;;;;;6249183;28;20041;-77
2021/04/17 13:39:05;;;;;;;3.63;2.50;;;15.70;35.20;;;;;;6250996;28;20112;-78
2021/04/17 13:42:07;;;;;;;4.57;3.10;;;16.00;34.80;;;;;;6250991;28;20128;-78
2021/04/17 13:45:09;;;;;;;4.07;2.58;;;16.20;33.80;;;;;;6248083;28;20052;-77
2021/04/17 13:48:11;;;;;;;5.97;3.28;;;16.30;33.50;;;;;;6247342;28;20136;-77
2021/04/17 13:51:12;;;;;;;3.97;2.13;;;16.40;33.50;;;;;;6249011;28;20049;-78
2021/04/17 13:54:14;;;;;;;5.05;3.38;;;16.50;33.20;;;;;;6246865;28;20253;-77
2021/04/17 13:57:16;;;;;;;5.72;2.60;;;16.60;34.50;;;;;;6247537;28;20129;-77
2021/04/17 14:00:19;;;;;;;3.78;2.13;;;16.70;33.30;;;;;;6255712;28;20793;-78
2021/04/17 14:03:21;;;;;;;3.38;2.35;;;16.80;33.10;;;;;;6254681;28;20049;-78
2021/04/17 14:06:22;;;;;;;4.90;4.47;;;16.90;33.50;;;;;;6256345;28;20156;-77
2021/04/17 14:09:24;;;;;;;5.13;3.00;;;17.10;33.20;;;;;;6258776;28;20049;-78
2021/04/17 14:12:26;;;;;;;6.85;2.33;;;16.90;32.20;;;;;;6258201;28;20041;-79
2021/04/17 14:15:29;;;;;;;4.63;2.85;;;16.30;33.10;;;;;;6257386;28;20053;-78
2021/04/17 14:18:30;;;;;;;4.93;2.60;;;15.90;33.90;;;;;;6256919;28;20137;-78
2021/04/17 14:21:32;;;;;;;9.95;3.05;;;15.60;34.20;;;;;;6255751;28;20100;-78
2021/04/17 14:24:34;;;;;;;5.47;2.28;;;15.30;38.50;;;;;;6255418;28;20466;-78
2021/04/17 14:27:36;;;;;;;5.30;3.65;;;15.20;36.70;;;;;;6253785;28;20073;-78
2021/04/17 14:30:37;;;;;;;4.20;2.83;;;14.90;37.10;;;;;;6253928;28;20514;-78
2021/04/17 14:33:39;;;;;;;4.65;2.42;;;14.80;37.30;;;;;;6252109;28;20136;-78
2021/04/17 14:36:40;;;;;;;5.93;2.30;;;14.70;39.40;;;;;;6251886;28;20041;-78
2021/04/17 14:39:42;;;;;;;2.83;2.38;;;14.90;36.40;;;;;;6255878;28;20049;-79
2021/04/17 14:42:44;;;;;;;4.20;2.35;;;14.90;37.40;;;;;;6255700;28;20507;-79
2021/04/17 14:45:46;;;;;;;3.92;3.25;;;14.90;37.20;;;;;;6254528;28;20125;-78
2021/04/17 14:48:47;;;;;;;6.93;2.67;;;15.10;36.40;;;;;;6252110;28;20136;-78
2021/04/17 14:51:49;;;;;;;4.00;3.15;;;15.20;36.50;;;;;;6253311;28;20080;-79
2021/04/17 14:54:51;;;;;;;5.47;2.47;;;15.20;35.70;;;;;;6252838;28;20538;-78
2021/04/17 14:57:52;;;;;;;4.13;3.00;;;15.30;38.00;;;;;;6251794;28;20110;-78
2021/04/17 15:00:53;;;;;;;4.53;3.92;;;15.40;35.60;;;;;;6252401;28;20069;-79
2021/04/17 15:03:55;;;;;;;5.20;3.05;;;15.30;36.20;;;;;;6252332;28;20042;-78
2021/04/17 15:06:56;;;;;;;5.50;3.33;;;15.40;36.30;;;;;;6252448;28;20076;-78
2021/04/17 15:09:58;;;;;;;3.38;2.58;;;15.60;36.90;;;;;;6253250;28;20061;-78
2021/04/17 15:13:00;;;;;;;4.82;3.35;;;15.90;35.40;;;;;;6254785;28;20057;-79
2021/04/17 15:16:02;;;;;;;5.15;2.78;;;15.90;34.40;;;;;;6253422;28;20507;-78
2021/04/17 15:19:03;;;;;;;7.63;4.35;;;15.80;34.80;;;;;;6248230;28;20046;-78
2021/04/17 15:22:05;;;;;;;5.50;2.50;;;15.80;35.50;;;;;;6246823;28;20072;-79
2021/04/17 15:25:08;;;;;;;2.42;2.05;;;15.90;36.10;;;;;;6254398;28;20128;-78
2021/04/17 15:28:11;;;;;;;6.18;2.47;;;16.00;34.20;;;;;;6253315;28;20577;-79
2021/04/17 15:31:13;;;;;;;4.53;2.88;;;15.80;34.80;;;;;;6254884;28;20103;-79
2021/04/17 15:34:15;;;;;;;3.72;3.13;;;15.50;34.90;;;;;;6254649;28;20065;-79
2021/04/17 15:37:17;;;;;;;3.88;3.08;;;15.40;36.00;;;;;;6253574;28;20049;-78
2021/04/17 15:40:19;;;;;;;9.23;5.82;;;15.50;35.10;;;;;;6254898;28;20123;-78
2021/04/17 15:43:20;;;;;;;5.10;2.58;;;15.70;35.10;;;;;;6239962;28;20046;-78
2021/04/17 15:46:22;;;;;;;5.15;2.95;;;15.70;35.30;;;;;;6226919;28;20523;-78
2021/04/17 15:49:23;;;;;;;3.65;2.50;;;15.70;34.60;;;;;;6225878;28;20180;-79
2021/04/17 15:52:24;;;;;;;3.33;2.20;;;15.50;34.30;;;;;;6229541;28;20058;-79